Bush, Kentucky
Current Conditions -  °F | °C
As of 5:53 AM on Sunday 23 Nov 2014 (Local Time) from KLOZ Reporting Station
Scattered Clouds Scattered Clouds  
Wind Chill:   Ceiling: Unl
Heat Index:   Visibility: 10mi
Dew Point:   Wind: 3mph
Humidity: 56%   Direction: 130°SE
Pressure: 30.04"   Gusts: NA
Location:  37.09°N, 83.87°W
Report Text: KLOZ 231053Z AUTO 13003KT 10SM SCT055 09/01 A3004 RMK AO2 SLP172 T00890006
Loading
Personal Weather Stations






























Interactive Weather Map New forecast layout! Learn more

10-Day Weather Forecast

Advertisements
Track Severe Weather on mobile